createdAt,value
2023-03-17T00:01:56.042Z,6.40
2023-03-17T00:06:59.779Z,6.38
2023-03-17T00:12:01.678Z,6.37
2023-03-17T00:17:03.607Z,6.39
2023-03-17T00:22:13.570Z,6.36
2023-03-17T00:27:16.854Z,6.42
2023-03-17T00:32:19.386Z,6.36
2023-03-17T00:37:22.957Z,6.34
2023-03-17T00:42:24.672Z,6.38
2023-03-17T00:47:26.681Z,6.35
2023-03-17T00:52:29.706Z,6.34
2023-03-17T00:57:31.401Z,6.30
2023-03-17T01:02:33.289Z,6.31
2023-03-17T01:07:37.105Z,6.37
2023-03-17T01:12:38.943Z,6.33
2023-03-17T01:17:41.691Z,6.29
2023-03-17T01:22:45.202Z,6.22
2023-03-17T01:27:47.081Z,6.20
2023-03-17T01:32:48.918Z,6.19
2023-03-17T01:37:52.245Z,6.19
2023-03-17T01:42:54.829Z,6.17
2023-03-17T01:47:56.561Z,6.18
2023-03-17T01:52:59.564Z,6.12
2023-03-17T01:58:01.344Z,6.13
2023-03-17T02:03:03.850Z,6.05
2023-03-17T02:08:11.106Z,6.08
2023-03-17T02:13:12.985Z,6.13
2023-03-17T02:18:15.424Z,6.10
2023-03-17T02:23:21.027Z,6.07
2023-03-17T02:28:25.885Z,6.02
2023-03-17T02:33:27.719Z,5.97
2023-03-17T02:38:31.784Z,5.91
2023-03-17T02:43:35.823Z,5.97
2023-03-17T02:48:37.989Z,6.00
2023-03-17T02:53:41.067Z,5.90
2023-03-17T02:58:42.812Z,5.83
2023-03-17T03:03:44.548Z,5.82
2023-03-17T03:08:47.769Z,5.82
2023-03-17T03:13:49.641Z,5.89
2023-03-17T03:18:51.502Z,5.96
2023-03-17T03:23:54.811Z,6.00
2023-03-17T03:28:58.347Z,5.94
2023-03-17T03:34:00.215Z,5.93
2023-03-17T03:39:03.499Z,5.92
2023-03-17T03:44:05.554Z,5.89
2023-03-17T03:49:07.439Z,5.67
2023-03-17T03:54:10.463Z,5.60
2023-03-17T03:59:12.594Z,5.52
2023-03-17T04:04:14.276Z,5.50
2023-03-17T04:09:17.530Z,5.47
2023-03-17T04:14:19.497Z,5.41
2023-03-17T04:19:24.039Z,5.47
2023-03-17T04:24:27.734Z,5.41
2023-03-17T04:29:29.553Z,5.46
2023-03-17T04:34:31.287Z,5.37
2023-03-17T04:39:34.342Z,5.19
2023-03-17T04:44:36.512Z,5.18
2023-03-17T04:49:38.437Z,5.18
2023-03-17T04:54:42.189Z,4.86
2023-03-17T04:59:44.197Z,4.78
2023-03-17T05:04:46.109Z,4.76
2023-03-17T05:09:49.160Z,4.78
2023-03-17T05:14:50.882Z,4.79
2023-03-17T05:19:52.614Z,4.77
2023-03-17T05:24:55.673Z,4.78
2023-03-17T05:29:57.658Z,4.79
2023-03-17T05:34:59.429Z,4.80
2023-03-17T05:40:03.073Z,4.69
2023-03-17T05:45:05.704Z,4.71
2023-03-17T05:50:09.407Z,4.71
2023-03-17T05:55:12.447Z,4.69
2023-03-17T06:00:16.181Z,4.69
2023-03-17T06:05:18.031Z,4.77
2023-03-17T06:10:21.407Z,4.78
2023-03-17T06:15:23.116Z,4.93
2023-03-17T06:20:25.078Z,5.02
2023-03-17T06:25:28.272Z,5.15
2023-03-17T06:30:30.528Z,5.31
2023-03-17T06:35:33.202Z,5.49
2023-03-17T06:40:36.921Z,5.58
2023-03-17T06:45:38.869Z,5.78
2023-03-17T06:50:40.649Z,5.84
2023-03-17T06:55:43.745Z,6.07
2023-03-17T07:00:45.490Z,6.29
2023-03-17T07:05:47.719Z,7.39
2023-03-17T07:10:51.445Z,9.11
2023-03-17T07:15:55.361Z,9.99
2023-03-17T07:20:57.371Z,11.97
2023-03-17T07:26:00.536Z,11.86
2023-03-17T07:31:02.796Z,12.60
2023-03-17T07:36:07.089Z,15.44
2023-03-17T07:41:10.822Z,18.73
2023-03-17T07:46:12.715Z,21.47
2023-03-17T07:51:15.443Z,23.86
2023-03-17T07:56:18.506Z,24.71
2023-03-17T08:01:20.219Z,26.29
2023-03-17T08:06:22.096Z,25.17
2023-03-17T08:11:25.112Z,23.98
2023-03-17T08:16:27.559Z,26.42
2023-03-17T08:21:29.288Z,27.20
2023-03-17T08:26:32.499Z,25.93
2023-03-17T08:31:34.383Z,24.76
2023-03-17T08:36:36.123Z,23.89
2023-03-17T08:41:39.150Z,23.19
2023-03-17T08:46:40.934Z,22.77
2023-03-17T08:51:43.928Z,22.29
2023-03-17T08:56:47.006Z,22.30
2023-03-17T09:01:48.741Z,23.31
2023-03-17T09:07:02.869Z,23.57
2023-03-17T09:12:07.322Z,24.47
2023-03-17T09:17:09.624Z,25.77
2023-03-17T09:22:13.336Z,25.53
2023-03-17T09:27:16.356Z,24.63
2023-03-17T09:32:18.056Z,24.39
2023-03-17T09:37:19.746Z,24.60
2023-03-17T09:42:34.765Z,25.96
2023-03-17T09:47:56.554Z,29.07
2023-03-17T09:52:58.395Z,31.10
2023-03-17T09:58:03.331Z,32.21
2023-03-17T10:03:06.228Z,31.73
2023-03-17T10:08:28.942Z,31.63
2023-03-17T10:13:42.506Z,31.74
2023-03-17T10:18:48.151Z,31.99
2023-03-17T10:23:49.804Z,31.13
2023-03-17T10:28:52.809Z,30.14
2023-03-17T10:33:54.469Z,30.24
2023-03-17T10:38:56.395Z,29.32
2023-03-17T10:43:59.431Z,28.69
2023-03-17T10:49:05.502Z,28.62
2023-03-17T10:54:09.506Z,28.36
2023-03-17T10:59:17.825Z,27.85
2023-03-17T11:04:26.413Z,27.82
2023-03-17T11:09:30.430Z,27.67
2023-03-17T11:14:33.589Z,25.48
2023-03-17T11:19:43.646Z,24.77
2023-03-17T11:24:51.588Z,23.03
2023-03-17T11:30:14.925Z,22.50
2023-03-17T11:35:24.327Z,22.11
2023-03-17T11:40:29.448Z,21.40
2023-03-17T11:45:33.569Z,20.75
2023-03-17T11:50:39.241Z,20.79
2023-03-17T11:55:43.424Z,20.70
2023-03-17T12:00:50.710Z,20.42
2023-03-17T12:05:55.553Z,20.17
2023-03-17T12:10:57.725Z,19.95
2023-03-17T12:16:04.308Z,20.23
2023-03-17T12:21:09.538Z,20.31
2023-03-17T12:26:12.305Z,20.43
2023-03-17T12:31:17.534Z,20.76
2023-03-17T12:36:19.294Z,20.63
2023-03-17T12:41:28.878Z,20.50
2023-03-17T12:46:53.970Z,20.43
2023-03-17T12:52:01.435Z,20.52
2023-03-17T12:57:04.370Z,20.61
2023-03-17T13:02:15.508Z,20.64
2023-03-17T13:07:18.923Z,20.57
2023-03-17T13:12:58.304Z,20.65
2023-03-17T13:18:36.702Z,20.49
2023-03-17T13:23:42.080Z,20.10
2023-03-17T13:28:47.210Z,19.97
2023-03-17T13:33:51.325Z,19.91
2023-03-17T13:39:37.357Z,19.73
2023-03-17T13:45:07.091Z,19.46
2023-03-17T13:50:12.514Z,19.45
2023-03-17T13:55:36.614Z,19.39
2023-03-17T14:00:38.817Z,19.46
2023-03-17T14:05:40.575Z,19.34
2023-03-17T14:10:44.565Z,19.33
2023-03-17T14:15:48.607Z,19.16
2023-03-17T14:20:53.577Z,19.00
2023-03-17T14:25:56.896Z,18.94
2023-03-17T14:31:00.052Z,18.91
2023-03-17T14:36:02.676Z,18.87
2023-03-17T14:41:07.876Z,18.79
2023-03-17T14:46:13.676Z,18.69
2023-03-17T14:51:23.234Z,18.52
2023-03-17T14:56:31.595Z,18.35
2023-03-17T15:01:36.219Z,18.16
2023-03-17T15:06:47.050Z,18.05
2023-03-17T15:11:50.223Z,18.03
2023-03-17T15:16:52.435Z,17.98
2023-03-17T15:21:56.985Z,18.02
2023-03-17T15:27:01.298Z,17.98
2023-03-17T15:32:10.273Z,17.97
2023-03-17T15:37:16.065Z,17.83
2023-03-17T15:42:20.268Z,17.71
2023-03-17T15:47:23.282Z,17.69
2023-03-17T15:52:25.675Z,17.66
2023-03-17T15:57:28.885Z,17.59
2023-03-17T16:02:31.742Z,17.42
2023-03-17T16:07:34.089Z,17.34
2023-03-17T16:12:37.173Z,17.24
2023-03-17T16:17:39.158Z,17.14
2023-03-17T16:22:42.050Z,17.05
2023-03-17T16:27:45.187Z,16.96
2023-03-17T16:32:47.257Z,16.83
2023-03-17T16:37:51.815Z,16.72
2023-03-17T16:42:54.909Z,16.38
2023-03-17T16:47:57.067Z,16.08
2023-03-17T16:52:58.996Z,15.92
2023-03-17T16:58:03.872Z,15.91
2023-03-17T17:03:05.640Z,15.85
2023-03-17T17:08:07.405Z,15.71
2023-03-17T17:13:11.422Z,15.65
2023-03-17T17:18:14.509Z,15.54
2023-03-17T17:23:18.652Z,15.50
2023-03-17T17:28:22.646Z,15.49
2023-03-17T17:33:25.860Z,15.55
2023-03-17T17:38:28.787Z,15.56
2023-03-17T17:43:31.994Z,15.48
2023-03-17T17:48:34.295Z,15.42
2023-03-17T17:53:36.783Z,15.40
2023-03-17T17:58:39.793Z,15.28
2023-03-17T18:03:43.188Z,15.30
2023-03-17T18:08:45.562Z,15.15
2023-03-17T18:13:48.653Z,14.96
2023-03-17T18:18:50.676Z,14.80
2023-03-17T18:23:55.198Z,14.73
2023-03-17T18:28:58.381Z,14.51
2023-03-17T18:34:03.042Z,14.18
2023-03-17T18:39:04.872Z,13.97
2023-03-17T18:44:10.010Z,13.78
2023-03-17T18:49:11.692Z,13.60
2023-03-17T18:54:13.604Z,13.57
2023-03-17T18:59:16.633Z,13.54
2023-03-17T19:04:18.318Z,13.57
2023-03-17T19:09:20.980Z,13.52
2023-03-17T19:14:24.511Z,13.51
2023-03-17T19:19:26.202Z,13.50
2023-03-17T19:24:28.005Z,13.49
2023-03-17T19:29:32.480Z,13.40
2023-03-17T19:34:34.213Z,13.28
2023-03-17T19:39:37.689Z,13.28
2023-03-17T19:44:41.201Z,13.36
2023-03-17T19:49:42.976Z,13.35
2023-03-17T19:54:45.942Z,13.28
2023-03-17T19:59:49.056Z,13.27
2023-03-17T20:04:51.123Z,13.28
2023-03-17T20:09:53.975Z,13.20
2023-03-17T20:14:57.066Z,13.20
2023-03-17T20:19:58.772Z,13.05
2023-03-17T20:25:00.628Z,13.05
2023-03-17T20:30:05.054Z,13.08
2023-03-17T20:35:08.263Z,13.05
2023-03-17T20:40:11.268Z,13.10
2023-03-17T20:45:14.948Z,13.16
2023-03-17T20:50:16.808Z,13.24
2023-03-17T20:55:19.616Z,13.20
2023-03-17T21:00:23.424Z,12.99
2023-03-17T21:05:26.205Z,12.97
2023-03-17T21:10:28.160Z,13.01
2023-03-17T21:15:31.419Z,13.02
2023-03-17T21:20:34.263Z,13.04
2023-03-17T21:25:36.192Z,13.01
2023-03-17T21:30:42.159Z,13.05
2023-03-17T21:35:43.964Z,13.03
2023-03-17T21:40:46.151Z,13.00
2023-03-17T21:45:49.445Z,13.01
2023-03-17T21:50:51.186Z,12.94
2023-03-17T21:55:53.174Z,12.92
2023-03-17T22:00:56.248Z,12.90
2023-03-17T22:05:58.648Z,12.81
2023-03-17T22:11:00.360Z,12.68
2023-03-17T22:16:04.219Z,12.60
2023-03-17T22:21:06.193Z,12.66
2023-03-17T22:26:09.185Z,12.72
2023-03-17T22:31:13.069Z,12.74
2023-03-17T22:36:15.240Z,12.79
2023-03-17T22:41:17.910Z,12.83
2023-03-17T22:46:24.299Z,12.82
2023-03-17T22:51:26.745Z,12.73
2023-03-17T22:56:28.427Z,12.62
2023-03-17T23:01:31.774Z,12.54
2023-03-17T23:06:35.128Z,12.33
2023-03-17T23:11:37.398Z,12.25
2023-03-17T23:16:40.805Z,12.22
2023-03-17T23:21:42.517Z,12.27
2023-03-17T23:26:44.491Z,12.25
2023-03-17T23:31:47.569Z,12.26
2023-03-17T23:36:49.285Z,12.31
2023-03-17T23:41:51.296Z,12.34
2023-03-17T23:46:54.331Z,12.40
2023-03-17T23:51:56.023Z,12.43
2023-03-17T23:56:57.694Z,12.38
